createdAt,value
2017-04-22T00:00:12.202Z,40.50
2017-04-22T00:01:12.975Z,40.60
2017-04-22T00:02:13.166Z,40.60
2017-04-22T00:03:12.302Z,40.70
2017-04-22T00:04:11.160Z,is
2017-04-22T00:05:12.296Z,40.60
2017-04-22T00:06:12.484Z,40.60
2017-04-22T00:07:09.400Z,is
2017-04-22T00:08:12.500Z,40.70
2017-04-22T00:09:11.990Z,40.60
2017-04-22T00:10:12.822Z,40.70
2017-04-22T00:11:11.845Z,40.60
2017-04-22T00:12:10.782Z,is
2017-04-22T00:13:10.658Z,is
2017-04-22T00:14:11.889Z,40.70
2017-04-22T00:15:12.334Z,40.70
2017-04-22T00:16:12.673Z,40.70
2017-04-22T00:17:12.251Z,40.70
2017-04-22T00:18:12.679Z,40.70
2017-04-22T00:19:11.650Z,40.70
2017-04-22T00:20:11.687Z,40.70
2017-04-22T00:21:11.680Z,40.80
2017-04-22T00:22:12.602Z,40.80
2017-04-22T00:23:10.436Z,is
2017-04-22T00:24:12.882Z,41.10
2017-04-22T00:25:13.394Z,40.90
2017-04-22T00:26:11.457Z,40.90
2017-04-22T00:27:13.725Z,40.90
2017-04-22T00:28:12.544Z,40.90
2017-04-22T00:29:11.563Z,40.90
2017-04-22T00:30:13.545Z,40.90
2017-04-22T00:31:11.705Z,41.20
2017-04-22T00:32:12.673Z,41.00
2017-04-22T00:33:13.561Z,40.90
2017-04-22T00:34:11.460Z,40.90
2017-04-22T00:35:11.573Z,40.90
2017-04-22T00:36:12.668Z,40.90
2017-04-22T00:37:09.501Z,is
2017-04-22T00:38:12.617Z,40.90
2017-04-22T00:39:11.655Z,40.90
2017-04-22T00:40:11.536Z,40.80
2017-04-22T00:41:11.809Z,40.90
2017-04-22T00:42:12.578Z,41.00
2017-04-22T00:43:11.768Z,40.90
2017-04-22T00:44:11.895Z,40.90
2017-04-22T00:45:12.601Z,41.00
2017-04-22T00:46:12.259Z,41.00
2017-04-22T00:47:13.124Z,40.90
2017-04-22T00:48:12.660Z,41.10
2017-04-22T00:49:12.615Z,41.00
2017-04-22T00:50:10.119Z,is
2017-04-22T00:51:12.232Z,41.10
2017-04-22T00:52:12.219Z,41.00
2017-04-22T00:53:12.669Z,41.00
2017-04-22T00:54:12.223Z,41.00
2017-04-22T00:55:13.126Z,41.10
2017-04-22T00:56:13.761Z,41.20
2017-04-22T00:57:11.855Z,41.00
2017-04-22T00:58:11.943Z,41.00
2017-04-22T00:59:13.657Z,41.10
2017-04-22T01:00:11.420Z,41.00
2017-04-22T01:01:12.044Z,41.00
2017-04-22T01:02:14.051Z,41.10
2017-04-22T01:03:14.055Z,41.10
2017-04-22T01:04:12.223Z,41.00
2017-04-22T01:05:12.858Z,41.00
2017-04-22T01:06:11.408Z,41.00
2017-04-22T01:07:13.802Z,41.00
2017-04-22T01:08:12.390Z,41.10
2017-04-22T01:09:13.231Z,41.10
2017-04-22T01:10:14.950Z,41.20
2017-04-22T01:11:13.544Z,41.00
2017-04-22T01:12:11.758Z,41.10
2017-04-22T01:13:12.232Z,41.10
2017-04-22T01:14:15.356Z,41.20
2017-04-22T01:15:14.508Z,41.10
2017-04-22T01:16:13.195Z,41.20
2017-04-22T01:17:15.818Z,41.20
2017-04-22T01:18:11.839Z,41.10
2017-04-22T01:19:11.948Z,41.00
2017-04-22T01:20:14.566Z,41.20
2017-04-22T01:21:12.224Z,41.20
2017-04-22T01:22:14.679Z,41.00
2017-04-22T01:23:12.653Z,41.10
2017-04-22T01:24:11.702Z,41.20
2017-04-22T01:25:13.636Z,41.20
2017-04-22T01:26:14.074Z,41.20
2017-04-22T01:27:12.029Z,41.10
2017-04-22T01:28:13.612Z,41.10
2017-04-22T01:29:14.486Z,41.30
2017-04-22T01:30:13.977Z,41.20
2017-04-22T01:31:12.359Z,41.20
2017-04-22T01:32:12.231Z,41.20
2017-04-22T01:33:13.914Z,41.20
2017-04-22T01:34:13.142Z,41.20
2017-04-22T01:35:12.403Z,41.20
2017-04-22T01:36:12.203Z,41.20
2017-04-22T01:37:13.092Z,41.30
2017-04-22T01:38:13.484Z,41.20
2017-04-22T01:39:12.543Z,41.20
2017-04-22T01:40:12.022Z,41.20
2017-04-22T01:41:12.499Z,41.20
2017-04-22T01:42:11.963Z,41.20
2017-04-22T01:43:12.059Z,41.20
2017-04-22T01:44:14.983Z,41.30
2017-04-22T01:45:12.069Z,41.20
2017-04-22T01:46:12.211Z,41.20
2017-04-22T01:47:10.996Z,is
2017-04-22T01:48:11.813Z,41.20
2017-04-22T01:49:12.891Z,41.20
2017-04-22T01:50:12.130Z,41.20
2017-04-22T01:51:12.214Z,41.30
2017-04-22T01:52:13.714Z,41.30
2017-04-22T01:53:13.420Z,41.20
2017-04-22T01:54:12.215Z,41.30
2017-04-22T01:55:13.601Z,41.30
2017-04-22T01:56:12.360Z,41.20
2017-04-22T01:57:12.579Z,41.20
2017-04-22T01:58:11.835Z,41.30
2017-04-22T01:59:13.006Z,41.20
2017-04-22T02:00:13.731Z,41.30
2017-04-22T02:01:12.468Z,41.30
2017-04-22T02:02:09.994Z,is
2017-04-22T02:03:11.994Z,41.30
2017-04-22T02:04:12.101Z,41.30
2017-04-22T02:05:11.033Z,is
2017-04-22T02:06:12.676Z,41.20
2017-04-22T02:07:12.633Z,41.40
2017-04-22T02:08:13.481Z,41.40
2017-04-22T02:09:12.639Z,41.40
2017-04-22T02:10:12.239Z,41.40
2017-04-22T02:11:13.841Z,41.70
2017-04-22T02:12:13.597Z,41.40
2017-04-22T02:13:11.932Z,41.30
2017-04-22T02:14:13.349Z,41.30
2017-04-22T02:15:11.350Z,41.30
2017-04-22T02:16:12.475Z,41.30
2017-04-22T02:17:12.448Z,41.30
2017-04-22T02:18:11.561Z,41.40
2017-04-22T02:19:13.312Z,41.50
2017-04-22T02:20:13.163Z,41.50
2017-04-22T02:21:13.271Z,41.40
2017-04-22T02:22:11.049Z,is
2017-04-22T02:23:12.252Z,41.40
2017-04-22T02:24:13.152Z,41.30
2017-04-22T02:25:12.761Z,41.50
2017-04-22T02:26:09.724Z,is
2017-04-22T02:27:10.634Z,is
2017-04-22T02:28:12.242Z,41.40
2017-04-22T02:29:11.632Z,41.50
2017-04-22T02:30:13.122Z,41.30
2017-04-22T02:31:13.018Z,41.60
2017-04-22T02:32:13.810Z,41.40
2017-04-22T02:33:13.436Z,41.50
2017-04-22T02:34:09.525Z,is
2017-04-22T02:35:12.939Z,41.50
2017-04-22T02:36:11.987Z,41.50
2017-04-22T02:37:12.221Z,41.50
2017-04-22T02:38:13.498Z,41.40
2017-04-22T02:39:12.751Z,41.50
2017-04-22T02:40:12.761Z,41.50
2017-04-22T02:41:10.620Z,is
2017-04-22T02:42:12.631Z,41.60
2017-04-22T02:43:12.392Z,41.60
2017-04-22T02:44:12.222Z,41.60
2017-04-22T02:45:10.648Z,is
2017-04-22T02:46:13.362Z,41.50
2017-04-22T02:47:13.225Z,41.60
2017-04-22T02:48:11.892Z,41.50
2017-04-22T02:49:13.601Z,41.60
2017-04-22T02:50:12.341Z,41.40
2017-04-22T02:51:10.769Z,is
2017-04-22T02:52:12.328Z,41.60
2017-04-22T02:53:13.048Z,41.60
2017-04-22T02:54:13.231Z,41.60
2017-04-22T02:55:13.459Z,41.40
2017-04-22T02:56:12.247Z,41.50
2017-04-22T02:57:10.937Z,is
2017-04-22T02:58:12.854Z,41.50
2017-04-22T02:59:12.640Z,41.40
2017-04-22T03:00:13.539Z,42.10
2017-04-22T03:01:12.321Z,41.70
2017-04-22T03:02:13.064Z,41.50
2017-04-22T03:03:12.416Z,41.30
2017-04-22T03:04:11.749Z,41.50
2017-04-22T03:05:11.920Z,41.60
2017-04-22T03:06:12.379Z,41.60
2017-04-22T03:07:11.542Z,41.60
2017-04-22T03:08:11.851Z,41.60
2017-04-22T03:09:12.697Z,41.70
2017-04-22T03:10:12.441Z,41.80
2017-04-22T03:11:12.343Z,41.80
2017-04-22T03:12:12.110Z,42.20
2017-04-22T03:13:11.987Z,42.40
2017-04-22T03:14:15.150Z,42.60
2017-04-22T03:15:13.107Z,42.80
2017-04-22T03:16:12.326Z,42.90
2017-04-22T03:17:13.410Z,43.10
2017-04-22T03:18:12.223Z,43.10
2017-04-22T03:19:12.229Z,43.30
2017-04-22T03:20:13.501Z,43.30
2017-04-22T03:21:12.139Z,43.30
2017-04-22T03:22:13.000Z,43.30
2017-04-22T03:23:13.495Z,43.30
2017-04-22T03:24:12.053Z,43.30
2017-04-22T03:25:12.229Z,43.20
2017-04-22T03:26:13.111Z,43.40
2017-04-22T03:27:10.644Z,is
2017-04-22T03:28:11.955Z,43.20
2017-04-22T03:29:13.272Z,43.40
2017-04-22T03:30:11.322Z,43.40
2017-04-22T03:31:12.523Z,43.20
2017-04-22T03:32:12.152Z,43.30
2017-04-22T03:33:13.127Z,43.30
2017-04-22T03:34:13.261Z,43.30
2017-04-22T03:35:12.474Z,43.30
2017-04-22T03:36:12.148Z,43.50
2017-04-22T03:37:14.424Z,43.50
2017-04-22T03:38:12.421Z,43.40
2017-04-22T03:39:12.074Z,43.40
2017-04-22T03:40:13.043Z,43.50
2017-04-22T03:41:12.662Z,43.30
2017-04-22T03:42:11.791Z,43.40
2017-04-22T03:43:11.983Z,43.50
2017-04-22T03:44:13.300Z,43.30
2017-04-22T03:45:13.134Z,43.30
2017-04-22T03:46:10.700Z,is
2017-04-22T03:47:14.623Z,43.40
2017-04-22T03:48:12.234Z,43.40
2017-04-22T03:49:12.738Z,43.50
2017-04-22T03:50:11.723Z,43.40
2017-04-22T03:51:12.502Z,43.40
2017-04-22T03:52:10.246Z,is
2017-04-22T03:53:12.579Z,43.30
2017-04-22T03:54:12.588Z,43.40
2017-04-22T03:55:12.236Z,43.60
2017-04-22T03:56:13.009Z,43.40
2017-04-22T03:57:13.961Z,43.50
2017-04-22T03:58:12.143Z,43.50
2017-04-22T03:59:12.234Z,43.50
2017-04-22T04:00:09.390Z,is
2017-04-22T04:01:11.410Z,43.50
2017-04-22T04:02:10.780Z,is
2017-04-22T04:03:12.492Z,43.60
2017-04-22T04:04:11.628Z,43.50
2017-04-22T04:05:11.880Z,43.50
2017-04-22T04:06:13.109Z,43.60
2017-04-22T04:07:12.235Z,43.50
2017-04-22T04:08:12.534Z,43.60
2017-04-22T04:09:10.331Z,is
2017-04-22T04:10:11.643Z,43.60
2017-04-22T04:11:13.323Z,43.60
2017-04-22T04:12:12.426Z,43.60
2017-04-22T04:13:11.490Z,43.40
2017-04-22T04:14:11.646Z,43.60
2017-04-22T04:15:12.501Z,43.70
2017-04-22T04:16:12.307Z,43.60
2017-04-22T04:17:13.327Z,43.70
2017-04-22T04:18:12.445Z,43.70
2017-04-22T04:19:10.402Z,is
2017-04-22T04:20:12.001Z,43.60
2017-04-22T04:21:11.558Z,is
2017-04-22T04:22:13.019Z,43.70
2017-04-22T04:23:10.797Z,is
2017-04-22T04:24:13.840Z,43.80
2017-04-22T04:25:17.031Z,43.70
2017-04-22T04:26:15.622Z,43.70
2017-04-22T04:27:12.223Z,43.80
2017-04-22T04:28:14.309Z,43.70
2017-04-22T04:29:12.238Z,43.70
2017-04-22T04:30:13.045Z,43.80
2017-04-22T04:31:11.948Z,43.70
2017-04-22T04:32:12.985Z,43.60
2017-04-22T04:33:12.383Z,43.70
2017-04-22T04:34:12.723Z,43.90
2017-04-22T04:35:11.699Z,43.70
2017-04-22T04:36:12.227Z,43.80
2017-04-22T04:37:12.224Z,43.70
2017-04-22T04:38:11.119Z,is
2017-04-22T04:39:11.593Z,43.80
2017-04-22T04:40:13.077Z,43.80
2017-04-22T04:41:11.994Z,43.70
2017-04-22T04:42:12.276Z,43.70
2017-04-22T04:43:11.312Z,43.70
2017-04-22T04:44:13.374Z,43.80
2017-04-22T04:45:12.376Z,43.90
2017-04-22T04:46:13.239Z,43.80
2017-04-22T04:47:12.844Z,43.80
2017-04-22T04:48:11.961Z,43.90
2017-04-22T04:49:13.711Z,43.90
2017-04-22T04:50:12.471Z,43.90
2017-04-22T04:51:09.978Z,is
2017-04-22T04:52:12.379Z,43.80
2017-04-22T04:53:13.236Z,43.80
2017-04-22T04:54:12.424Z,43.80
2017-04-22T04:55:12.167Z,43.80
2017-04-22T04:56:10.846Z,is
2017-04-22T04:57:13.954Z,43.80
2017-04-22T04:58:10.617Z,is
2017-04-22T04:59:12.748Z,43.90
2017-04-22T05:00:12.426Z,43.80
2017-04-22T05:01:09.441Z,is
2017-04-22T05:02:13.845Z,43.80
2017-04-22T05:03:12.379Z,43.80
2017-04-22T05:04:12.442Z,43.80
2017-04-22T05:05:11.459Z,43.80
2017-04-22T05:06:11.580Z,43.80
2017-04-22T05:07:11.724Z,43.80
2017-04-22T05:08:12.647Z,43.90
2017-04-22T05:09:12.282Z,43.90
2017-04-22T05:10:13.702Z,43.90
2017-04-22T05:11:11.826Z,43.90
2017-04-22T05:12:12.036Z,43.80
2017-04-22T05:13:12.156Z,43.80
2017-04-22T05:14:12.949Z,43.80
2017-04-22T05:15:12.232Z,43.80
2017-04-22T05:16:10.037Z,is
2017-04-22T05:17:11.780Z,43.90
2017-04-22T05:18:12.940Z,44.00
2017-04-22T05:19:12.586Z,43.90
2017-04-22T05:20:11.499Z,is
2017-04-22T05:21:11.940Z,43.80
2017-04-22T05:22:13.132Z,43.90
2017-04-22T05:23:10.738Z,is
2017-04-22T05:24:12.588Z,43.80
2017-04-22T05:25:11.529Z,43.80
2017-04-22T05:26:12.015Z,43.90
2017-04-22T05:27:12.648Z,44.30
2017-04-22T05:28:11.676Z,43.90
2017-04-22T05:29:12.532Z,43.90
2017-04-22T05:30:11.640Z,43.90
2017-04-22T05:31:12.958Z,44.00
2017-04-22T05:32:12.129Z,43.80
2017-04-22T05:33:12.186Z,43.90
2017-04-22T05:34:12.312Z,43.90
2017-04-22T05:35:12.378Z,43.90
2017-04-22T05:36:11.433Z,43.90
2017-04-22T05:37:11.841Z,43.90
2017-04-22T05:38:12.386Z,43.90
2017-04-22T05:39:13.047Z,44.00
2017-04-22T05:40:10.722Z,is
2017-04-22T05:41:12.644Z,44.00
2017-04-22T05:42:12.646Z,43.90
2017-04-22T05:43:12.392Z,43.90
2017-04-22T05:44:08.906Z,is
2017-04-22T05:45:11.817Z,43.90
2017-04-22T05:46:12.629Z,44.00
2017-04-22T05:47:11.838Z,43.90
2017-04-22T05:48:12.703Z,44.00
2017-04-22T05:49:11.695Z,44.00
2017-04-22T05:50:11.818Z,43.80
2017-04-22T05:51:11.804Z,43.90
2017-04-22T05:52:11.871Z,43.90
2017-04-22T05:53:13.198Z,44.00
2017-04-22T05:54:12.689Z,43.90
2017-04-22T05:55:12.465Z,44.00
2017-04-22T05:56:12.084Z,44.00
2017-04-22T05:57:12.032Z,44.00
2017-04-22T05:58:12.908Z,44.00
2017-04-22T05:59:12.085Z,43.90
2017-04-22T06:00:09.465Z,is
2017-04-22T06:01:12.140Z,44.00
2017-04-22T06:02:13.045Z,44.00
2017-04-22T06:03:10.590Z,is
2017-04-22T06:04:13.273Z,44.00
2017-04-22T06:05:13.207Z,44.10
2017-04-22T06:06:10.688Z,is
2017-04-22T06:07:11.032Z,is
2017-04-22T06:08:13.450Z,44.00
2017-04-22T06:09:11.853Z,43.90
2017-04-22T06:10:13.213Z,44.00
2017-04-22T06:11:11.597Z,43.90
2017-04-22T06:12:12.414Z,43.90
2017-04-22T06:13:11.464Z,44.00
2017-04-22T06:14:11.665Z,43.90
2017-04-22T06:15:13.296Z,44.00
2017-04-22T06:16:13.090Z,44.10
2017-04-22T06:17:12.352Z,44.00
2017-04-22T06:18:10.217Z,is
2017-04-22T06:19:11.277Z,44.10
2017-04-22T06:20:12.445Z,44.00
2017-04-22T06:21:11.558Z,44.00
2017-04-22T06:22:12.523Z,44.10
2017-04-22T06:23:11.653Z,44.00
2017-04-22T06:24:12.397Z,44.00
2017-04-22T06:25:12.431Z,44.10
2017-04-22T06:26:11.990Z,44.00
2017-04-22T06:27:12.130Z,44.10
2017-04-22T06:28:12.338Z,44.00
2017-04-22T06:29:14.036Z,44.10
2017-04-22T06:30:12.003Z,44.10
2017-04-22T06:31:12.113Z,44.00
2017-04-22T06:32:12.759Z,44.00
2017-04-22T06:33:11.776Z,44.00
2017-04-22T06:34:12.156Z,44.10
2017-04-22T06:35:14.037Z,44.10
2017-04-22T06:36:13.650Z,44.10
2017-04-22T06:37:14.359Z,44.30
2017-04-22T06:38:12.772Z,43.90
2017-04-22T06:39:13.533Z,44.00
2017-04-22T06:40:10.108Z,is
2017-04-22T06:41:11.674Z,44.00
2017-04-22T06:42:12.401Z,44.10
2017-04-22T06:43:11.432Z,44.00
2017-04-22T06:44:10.152Z,is
2017-04-22T06:45:12.143Z,43.30
2017-04-22T06:46:10.893Z,is
2017-04-22T06:47:12.633Z,44.00
2017-04-22T06:48:12.440Z,44.10
2017-04-22T06:49:09.582Z,is
2017-04-22T06:50:12.207Z,44.10
2017-04-22T06:51:12.223Z,44.10
2017-04-22T06:52:12.349Z,44.00
2017-04-22T06:53:12.422Z,44.10
2017-04-22T06:54:12.433Z,44.20
2017-04-22T06:55:11.565Z,44.00
2017-04-22T06:56:11.720Z,44.00
2017-04-22T06:57:12.404Z,44.10
2017-04-22T06:58:13.184Z,44.00
2017-04-22T06:59:13.949Z,44.10
2017-04-22T07:00:14.649Z,44.00
2017-04-22T07:01:13.435Z,44.00
2017-04-22T07:02:12.421Z,44.10
2017-04-22T07:03:11.849Z,44.00
2017-04-22T07:04:11.919Z,44.00
2017-04-22T07:05:12.164Z,44.00
2017-04-22T07:06:12.260Z,44.10
2017-04-22T07:07:12.883Z,44.20
2017-04-22T07:08:11.953Z,44.00
2017-04-22T07:09:12.070Z,44.00
2017-04-22T07:10:12.848Z,44.10
2017-04-22T07:11:11.831Z,44.00
2017-04-22T07:12:12.333Z,44.10
2017-04-22T07:13:12.208Z,44.10
2017-04-22T07:14:12.485Z,44.00
2017-04-22T07:15:13.396Z,44.20
2017-04-22T07:16:13.034Z,44.10
2017-04-22T07:17:12.603Z,44.20
2017-04-22T07:18:12.215Z,44.10
2017-04-22T07:19:14.381Z,44.20
2017-04-22T07:20:12.201Z,44.20
2017-04-22T07:21:12.720Z,44.20
2017-04-22T07:22:11.575Z,44.10
2017-04-22T07:23:12.906Z,44.10
2017-04-22T07:24:12.657Z,44.20
2017-04-22T07:25:13.005Z,44.10
2017-04-22T07:26:13.841Z,44.20
2017-04-22T07:27:12.804Z,44.20
2017-04-22T07:28:12.095Z,44.10
2017-04-22T07:29:17.769Z,44.10
2017-04-22T07:30:12.557Z,44.20
2017-04-22T07:31:11.564Z,44.10
2017-04-22T07:32:10.088Z,is
2017-04-22T07:33:11.885Z,44.10
2017-04-22T07:34:12.325Z,44.20
2017-04-22T07:35:13.146Z,44.20
2017-04-22T07:36:12.928Z,44.20
2017-04-22T07:37:12.128Z,44.10
2017-04-22T07:38:10.874Z,is
2017-04-22T07:39:12.228Z,44.10
2017-04-22T07:40:12.837Z,43.30
2017-04-22T07:41:14.466Z,44.10
2017-04-22T07:42:11.594Z,44.20
2017-04-22T07:43:14.032Z,44.20
2017-04-22T07:44:12.120Z,44.20
2017-04-22T07:45:12.937Z,44.20
2017-04-22T07:46:11.863Z,44.20
2017-04-22T07:47:11.997Z,44.10
2017-04-22T07:48:12.606Z,44.20
2017-04-22T07:49:11.625Z,44.20
2017-04-22T07:50:11.765Z,44.20
2017-04-22T07:51:12.694Z,44.20
2017-04-22T07:52:14.534Z,44.20
2017-04-22T07:53:11.514Z,44.20
2017-04-22T07:54:11.970Z,44.10
2017-04-22T07:55:12.032Z,44.10
2017-04-22T07:56:11.883Z,44.10
2017-04-22T07:57:13.689Z,44.20
2017-04-22T07:58:11.688Z,44.20
2017-04-22T07:59:12.282Z,44.30
2017-04-22T08:00:13.950Z,44.20
2017-04-22T08:01:12.875Z,44.20
2017-04-22T08:02:12.642Z,44.30
2017-04-22T08:03:13.259Z,44.30
2017-04-22T08:04:12.280Z,44.20
2017-04-22T08:05:13.239Z,44.10
2017-04-22T08:06:13.129Z,44.20
2017-04-22T08:07:13.107Z,44.30
2017-04-22T08:08:12.807Z,44.20
2017-04-22T08:09:12.138Z,44.10
2017-04-22T08:10:12.735Z,44.20
2017-04-22T08:11:12.594Z,44.20
2017-04-22T08:12:12.298Z,44.20
2017-04-22T08:13:13.063Z,44.10
2017-04-22T08:14:12.783Z,44.20
2017-04-22T08:15:12.527Z,44.20
2017-04-22T08:16:12.230Z,44.20
2017-04-22T08:17:12.649Z,44.10
2017-04-22T08:18:11.497Z,44.20
2017-04-22T08:19:12.216Z,44.20
2017-04-22T08:20:14.097Z,44.30
2017-04-22T08:21:13.244Z,44.40
2017-04-22T08:22:11.769Z,43.60
2017-04-22T08:23:13.363Z,44.50
2017-04-22T08:24:13.512Z,44.50
2017-04-22T08:25:12.255Z,44.50
2017-04-22T08:26:11.528Z,44.40
2017-04-22T08:27:11.598Z,44.50
2017-04-22T08:28:11.668Z,44.50
2017-04-22T08:29:12.588Z,44.50
2017-04-22T08:30:12.252Z,44.50
2017-04-22T08:31:13.915Z,44.60
2017-04-22T08:32:11.730Z,44.60
2017-04-22T08:33:12.153Z,44.50
2017-04-22T08:34:12.625Z,44.50
2017-04-22T08:35:21.753Z,44.50
2017-04-22T08:36:14.283Z,44.60
2017-04-22T08:37:13.044Z,44.60
2017-04-22T08:38:13.708Z,44.50
2017-04-22T08:39:11.916Z,44.50
2017-04-22T08:40:18.578Z,44.60
2017-04-22T08:41:12.337Z,44.10
2017-04-22T08:42:12.679Z,44.50
2017-04-22T08:43:10.118Z,is
2017-04-22T08:44:11.775Z,44.50
2017-04-22T08:45:11.925Z,44.50
2017-04-22T08:46:13.026Z,44.70
2017-04-22T08:47:12.821Z,44.60
2017-04-22T08:48:11.765Z,44.60
2017-04-22T08:49:14.601Z,44.50
2017-04-22T08:50:11.778Z,44.50
2017-04-22T08:51:12.082Z,44.50
2017-04-22T08:52:13.461Z,44.70
2017-04-22T08:53:10.218Z,is
2017-04-22T08:54:12.663Z,44.60
2017-04-22T08:55:11.665Z,44.70
2017-04-22T08:56:11.848Z,44.70
2017-04-22T08:57:11.745Z,44.70
2017-04-22T08:58:12.391Z,44.70
2017-04-22T08:59:11.327Z,44.70
2017-04-22T09:00:12.968Z,44.80
2017-04-22T09:01:12.102Z,44.80
2017-04-22T09:02:10.163Z,is
2017-04-22T09:03:10.103Z,is
2017-04-22T09:04:12.369Z,44.80
2017-04-22T09:05:11.391Z,is
2017-04-22T09:06:12.674Z,45.00
2017-04-22T09:07:11.665Z,44.00
2017-04-22T09:08:11.993Z,45.00
2017-04-22T09:09:10.600Z,is
2017-04-22T09:10:12.577Z,45.00
2017-04-22T09:11:13.183Z,45.10
2017-04-22T09:12:13.052Z,45.10
2017-04-22T09:13:11.985Z,45.00
2017-04-22T09:14:12.959Z,45.20
2017-04-22T09:15:13.603Z,45.20
2017-04-22T09:16:12.353Z,45.00
2017-04-22T09:17:13.096Z,45.20
2017-04-22T09:18:12.813Z,44.90
2017-04-22T09:19:11.737Z,45.00
2017-04-22T09:20:12.655Z,45.10
2017-04-22T09:21:12.413Z,45.10
2017-04-22T09:22:11.906Z,45.10
2017-04-22T09:23:11.968Z,45.10
2017-04-22T09:24:13.822Z,45.20
2017-04-22T09:25:12.013Z,45.20
2017-04-22T09:26:13.116Z,45.20
2017-04-22T09:27:13.008Z,45.40
2017-04-22T09:28:12.210Z,45.30
2017-04-22T09:29:12.911Z,45.40
2017-04-22T09:30:11.852Z,45.30
2017-04-22T09:31:14.484Z,45.50
2017-04-22T09:32:11.520Z,45.40
2017-04-22T09:33:11.534Z,45.40
2017-04-22T09:34:12.557Z,45.40
2017-04-22T09:35:11.561Z,45.40
2017-04-22T09:36:13.320Z,45.30
2017-04-22T09:37:13.040Z,45.50
2017-04-22T09:38:12.145Z,45.40
2017-04-22T09:39:14.413Z,45.30
2017-04-22T09:40:13.191Z,45.40
2017-04-22T09:41:12.822Z,45.30
2017-04-22T09:42:12.377Z,45.40
2017-04-22T09:43:13.136Z,45.40
2017-04-22T09:44:12.388Z,45.30
2017-04-22T09:45:14.330Z,45.40
2017-04-22T09:46:13.121Z,45.40
2017-04-22T09:47:12.318Z,45.40
2017-04-22T09:48:13.528Z,45.40
2017-04-22T09:49:12.067Z,45.30
2017-04-22T09:50:12.850Z,45.50
2017-04-22T09:51:11.857Z,45.40
2017-04-22T09:52:09.191Z,is
2017-04-22T09:53:11.440Z,45.40
2017-04-22T09:54:11.880Z,45.40
2017-04-22T09:55:12.007Z,45.30
2017-04-22T09:56:12.721Z,45.50
2017-04-22T09:57:11.790Z,45.40
2017-04-22T09:58:13.948Z,45.40
2017-04-22T09:59:12.186Z,45.30
2017-04-22T10:00:12.356Z,45.40
2017-04-22T10:01:13.222Z,45.50
2017-04-22T10:02:13.889Z,45.40
2017-04-22T10:03:10.709Z,is
2017-04-22T10:04:12.634Z,45.40
2017-04-22T10:05:12.221Z,45.40
2017-04-22T10:06:12.582Z,45.40
2017-04-22T10:07:11.977Z,45.30
2017-04-22T10:08:12.644Z,45.40
2017-04-22T10:09:11.675Z,45.40
2017-04-22T10:10:11.479Z,45.40
2017-04-22T10:11:11.631Z,45.30
2017-04-22T10:12:11.773Z,45.40
2017-04-22T10:13:11.667Z,45.50
2017-04-22T10:14:12.388Z,45.30
2017-04-22T10:15:11.613Z,45.40
2017-04-22T10:16:11.862Z,45.30
2017-04-22T10:17:12.394Z,45.40
2017-04-22T10:18:12.236Z,45.40
2017-04-22T10:19:12.332Z,is
2017-04-22T10:20:12.243Z,45.40
2017-04-22T10:21:12.444Z,45.30
2017-04-22T10:22:12.388Z,45.50
2017-04-22T10:23:12.221Z,45.40
2017-04-22T10:24:12.715Z,45.40
2017-04-22T10:25:11.864Z,45.40
2017-04-22T10:26:12.291Z,45.40
2017-04-22T10:27:10.380Z,is
2017-04-22T10:28:12.962Z,45.50
2017-04-22T10:29:12.702Z,45.40
2017-04-22T10:30:11.669Z,45.40
2017-04-22T10:31:12.774Z,45.50
2017-04-22T10:32:11.921Z,45.40
2017-04-22T10:33:12.673Z,45.40
2017-04-22T10:34:15.202Z,45.40
2017-04-22T10:35:13.887Z,45.50
2017-04-22T10:36:13.612Z,45.40
2017-04-22T10:37:14.422Z,45.30
2017-04-22T10:38:12.171Z,45.30
2017-04-22T10:39:12.308Z,45.30
2017-04-22T10:40:13.103Z,45.20
2017-04-22T10:41:12.689Z,45.30
2017-04-22T10:42:12.354Z,45.30
2017-04-22T10:43:12.580Z,45.10
2017-04-22T10:44:11.829Z,44.90
2017-04-22T10:45:10.539Z,is
2017-04-22T10:46:11.894Z,45.10
2017-04-22T10:47:12.600Z,45.10
2017-04-22T10:48:12.366Z,45.00
2017-04-22T10:49:10.429Z,is
2017-04-22T10:50:11.939Z,45.00
2017-04-22T10:51:11.868Z,45.10
2017-04-22T10:52:11.898Z,45.00
2017-04-22T10:53:10.594Z,is
2017-04-22T10:54:12.756Z,45.10
2017-04-22T10:55:11.961Z,45.10
2017-04-22T10:56:12.787Z,45.40
2017-04-22T10:57:11.618Z,45.30
2017-04-22T10:58:11.688Z,45.40
2017-04-22T10:59:13.401Z,45.50
2017-04-22T11:00:12.060Z,45.40
2017-04-22T11:01:12.147Z,46.40
2017-04-22T11:02:13.742Z,46.70
2017-04-22T11:03:13.347Z,46.70
2017-04-22T11:04:09.670Z,is
2017-04-22T11:05:12.175Z,46.90
2017-04-22T11:06:10.790Z,is
2017-04-22T11:07:12.386Z,47.30
2017-04-22T11:08:10.754Z,is
2017-04-22T11:09:12.827Z,48.20
2017-04-22T11:10:10.523Z,is
2017-04-22T11:11:12.614Z,49.50
2017-04-22T11:12:13.194Z,49.60
2017-04-22T11:13:10.169Z,is
2017-04-22T11:14:11.677Z,49.10
2017-04-22T11:15:11.669Z,48.70
2017-04-22T11:16:11.859Z,49.00
2017-04-22T11:17:12.427Z,48.70
2017-04-22T11:18:12.046Z,48.30
2017-04-22T11:19:11.967Z,48.20
2017-04-22T11:20:10.928Z,is
2017-04-22T11:21:13.813Z,48.40
2017-04-22T11:22:11.887Z,48.00
2017-04-22T11:23:11.839Z,47.80
2017-04-22T11:24:11.868Z,48.10
2017-04-22T11:25:12.469Z,48.10
2017-04-22T11:26:11.541Z,47.70
2017-04-22T11:27:12.408Z,47.90
2017-04-22T11:28:11.444Z,47.90
2017-04-22T11:29:11.413Z,47.50
2017-04-22T11:30:10.156Z,is
2017-04-22T11:31:13.199Z,47.40
2017-04-22T11:32:12.736Z,47.10
2017-04-22T11:33:12.424Z,46.90
2017-04-22T11:34:11.979Z,46.40
2017-04-22T11:35:13.766Z,45.40
2017-04-22T11:36:12.284Z,45.60
2017-04-22T11:37:13.622Z,44.60
2017-04-22T11:38:12.241Z,44.50
2017-04-22T11:39:13.122Z,42.90
2017-04-22T11:40:12.759Z,43.20
2017-04-22T11:41:11.763Z,43.60
2017-04-22T11:42:12.544Z,43.10
2017-04-22T11:43:11.684Z,42.80
2017-04-22T11:44:12.482Z,43.70
2017-04-22T11:45:11.857Z,43.80
2017-04-22T11:46:11.845Z,43.80
2017-04-22T11:47:12.237Z,44.10
2017-04-22T11:48:13.243Z,44.30
2017-04-22T11:49:13.070Z,44.20
2017-04-22T11:50:12.867Z,44.10
2017-04-22T11:51:13.640Z,44.10
2017-04-22T11:52:12.079Z,43.70
2017-04-22T11:53:12.296Z,43.60
2017-04-22T11:54:13.518Z,43.50
2017-04-22T11:55:12.331Z,43.30
2017-04-22T11:56:12.420Z,43.20
2017-04-22T11:57:11.658Z,43.00
2017-04-22T11:58:12.508Z,42.80
2017-04-22T11:59:12.276Z,42.90
2017-04-22T12:00:11.338Z,42.70
2017-04-22T12:01:12.986Z,42.60
2017-04-22T12:02:12.708Z,42.50
2017-04-22T12:03:11.742Z,42.40
2017-04-22T12:04:13.413Z,42.60
2017-04-22T12:05:11.555Z,42.40
2017-04-22T12:06:12.361Z,42.40
2017-04-22T12:07:14.179Z,42.30
2017-04-22T12:08:12.294Z,42.20
2017-04-22T12:09:12.443Z,42.20
2017-04-22T12:10:12.270Z,42.30
2017-04-22T12:11:12.259Z,42.30
2017-04-22T12:12:12.736Z,42.20
2017-04-22T12:13:10.407Z,is
2017-04-22T12:14:12.387Z,42.20
2017-04-22T12:15:12.355Z,42.10
2017-04-22T12:16:13.193Z,42.20
2017-04-22T12:17:13.269Z,42.20
2017-04-22T12:18:12.410Z,42.00
2017-04-22T12:19:12.399Z,42.10
2017-04-22T12:20:11.332Z,42.00
2017-04-22T12:21:12.222Z,42.00
2017-04-22T12:22:12.773Z,42.00
2017-04-22T12:23:11.685Z,42.00
2017-04-22T12:24:14.232Z,42.10
2017-04-22T12:25:12.408Z,42.00
2017-04-22T12:26:13.047Z,42.00
2017-04-22T12:27:13.096Z,42.10
2017-04-22T12:28:10.273Z,is
2017-04-22T12:29:11.434Z,42.00
2017-04-22T12:30:11.569Z,42.00
2017-04-22T12:31:11.791Z,42.00
2017-04-22T12:32:11.837Z,42.00
2017-04-22T12:33:11.902Z,42.10
2017-04-22T12:34:11.944Z,42.20
2017-04-22T12:35:12.632Z,42.20
2017-04-22T12:36:12.685Z,42.40
2017-04-22T12:37:12.250Z,42.10
2017-04-22T12:38:13.674Z,42.20
2017-04-22T12:39:11.672Z,42.20
2017-04-22T12:40:11.746Z,42.10
2017-04-22T12:41:12.525Z,42.20
2017-04-22T12:42:11.490Z,42.20
2017-04-22T12:43:11.956Z,42.20
2017-04-22T12:44:12.640Z,42.20
2017-04-22T12:45:12.234Z,42.20
2017-04-22T12:46:14.098Z,42.20
2017-04-22T12:47:12.886Z,42.20
2017-04-22T12:48:13.628Z,42.30
2017-04-22T12:49:12.437Z,42.30
2017-04-22T12:50:11.591Z,42.20
2017-04-22T12:51:09.575Z,is
2017-04-22T12:52:12.973Z,42.20
2017-04-22T12:53:12.788Z,42.30
2017-04-22T12:54:13.533Z,42.30
2017-04-22T12:55:12.174Z,42.40
2017-04-22T12:56:12.280Z,42.30
2017-04-22T12:57:10.767Z,is
2017-04-22T12:58:12.231Z,42.40
2017-04-22T12:59:13.226Z,42.40